»·PEaware :: N772WW KRNO-KLAS

N772WW :: KRNO-KLAS

FLIGHT INFORMATION

Flight Status: Arrived
Operator: Privately registered:
United States
More flights under this callsign
Pilot: Thomas S. (17015)
Aircraft: SOCATA TBM-900
(TBM9)
More flights by this aircraft type
Origin: KRNO Reno/Tahoe Intl
United States
Destination: KLAS McCarran Intl
United States
More flights between these airports :: More routes between these airports
Route: +ZEFFR6 PESKE OAL V105 BTY FUZZY8
File this flight plan on PilotEdge
Remarks:
Altitude:
(Current/Filed)
31,000ft
Speed:
(Current/Filed)
350kts
Departed: 27-Oct-20 08:43 AM
Arrived: 27-Oct-20 09:54 AM
Distance/Time
Traveled:
299nm/1:11
Distance/Time
To Go:
Arrived

Flight Plot

Page will automatically refresh every two minutes.

Flight plan parsing failed; only flown route is shown


Map Options




Map Legend


Flown Route
Filed Route
Departure Airport
Arrival Airport
Navaid (VOR, NDB)
Fix

Horizontal Profiles

Position Reports

Time Latitude Longitude Heading Altitude Ground
Speed
27-Oct-20 08:27 39.500623 -119.764764 90 4402ft 0kts
27-Oct-20 08:28 39.500623 -119.764764 90 4402ft 0kts
27-Oct-20 08:29 39.500623 -119.764764 90 4402ft 0kts
27-Oct-20 08:30 39.500623 -119.764764 90 4402ft 0kts
27-Oct-20 08:31 39.500623 -119.764764 90 4402ft 0kts
27-Oct-20 08:32 39.500623 -119.764764 90 4402ft 0kts
27-Oct-20 08:33 39.500623 -119.764764 90 4402ft 0kts
27-Oct-20 08:34 39.500623 -119.764764 90 4402ft 0kts
27-Oct-20 08:35 39.500623 -119.764764 90 4402ft 0kts
27-Oct-20 08:36 39.500623 -119.764764 90 4402ft 0kts
27-Oct-20 08:37 39.500623 -119.764764 90 4402ft 0kts
27-Oct-20 08:38 39.500623 -119.764764 90 4402ft 0kts
27-Oct-20 08:39 39.501797 -119.765721 359 4403ft 19kts
27-Oct-20 08:41 39.506790 -119.765709 1 4406ft 15kts
27-Oct-20 08:42 39.511062 -119.765162 358 4409ft 11kts
27-Oct-20 08:43 39.512887 -119.766745 180 4412ft 45kts
27-Oct-20 08:44 39.481972 -119.765615 175 5883ft 127kts
27-Oct-20 08:45 39.443807 -119.768796 180 8359ft 143kts
27-Oct-20 08:46 39.399611 -119.769534 174 10583ft 176kts
27-Oct-20 08:47 39.347453 -119.769633 171 12775ft 199kts
27-Oct-20 08:48 39.303078 -119.745492 118 15128ft 176kts
27-Oct-20 08:49 39.269393 -119.696669 121 17154ft 189kts
27-Oct-20 08:50 39.233177 -119.644493 122 19394ft 203kts
27-Oct-20 08:51 39.187133 -119.578268 124 19754ft 269kts
27-Oct-20 08:52 39.138136 -119.511050 129 21726ft 254kts
27-Oct-20 08:53 39.087729 -119.448381 128 23719ft 252kts
27-Oct-20 08:54 39.037397 -119.385905 128 25723ft 254kts
27-Oct-20 08:55 38.986319 -119.322631 130 27739ft 257kts
27-Oct-20 08:55 38.942887 -119.268944 130 29436ft 263kts
27-Oct-20 08:57 38.880850 -119.192424 130 31441ft 277kts
27-Oct-20 08:57 38.830250 -119.130122 131 31446ft 322kts
27-Oct-20 08:58 38.764952 -119.045465 122 31432ft 338kts
27-Oct-20 09:00 38.698089 -118.931655 121 31436ft 345kts
27-Oct-20 09:00 38.649908 -118.849799 121 31442ft 346kts
27-Oct-20 09:02 38.582122 -118.734977 121 31447ft 347kts
27-Oct-20 09:02 38.533595 -118.652995 121 31447ft 347kts
27-Oct-20 09:04 38.465334 -118.538059 120 31448ft 347kts
27-Oct-20 09:04 38.416588 -118.456231 120 31448ft 348kts
27-Oct-20 09:05 38.358186 -118.358466 120 31442ft 346kts
27-Oct-20 09:06 38.299647 -118.261004 120 31435ft 345kts
27-Oct-20 09:07 38.241406 -118.163828 120 31425ft 346kts
27-Oct-20 09:08 38.182921 -118.066801 120 31423ft 346kts
27-Oct-20 09:09 38.124107 -117.969505 120 31392ft 346kts
27-Oct-20 09:10 38.065395 -117.872669 120 31359ft 347kts
27-Oct-20 09:11 38.005935 -117.776123 127 31333ft 351kts
27-Oct-20 09:12 37.925196 -117.702835 139 31344ft 358kts
27-Oct-20 09:13 37.842406 -117.631313 139 31337ft 357kts
27-Oct-20 09:14 37.760353 -117.560614 139 31342ft 356kts
27-Oct-20 09:15 37.678656 -117.490439 139 31344ft 356kts
27-Oct-20 09:16 37.596586 -117.420117 139 31344ft 357kts
27-Oct-20 09:17 37.514552 -117.350018 139 31345ft 357kts
27-Oct-20 09:18 37.431868 -117.279548 139 31349ft 358kts
27-Oct-20 09:19 37.349355 -117.209397 139 31349ft 358kts
27-Oct-20 09:20 37.266480 -117.139138 139 31350ft 359kts
27-Oct-20 09:21 37.183764 -117.069200 139 31322ft 360kts
27-Oct-20 09:22 37.100564 -116.999055 139 31290ft 361kts
27-Oct-20 09:23 37.017078 -116.928847 138 31280ft 361kts
27-Oct-20 09:24 36.932429 -116.857740 139 29731ft 373kts
27-Oct-20 09:25 36.846542 -116.785869 138 28232ft 369kts
27-Oct-20 09:26 36.762325 -116.715616 138 28078ft 363kts
27-Oct-20 09:27 36.678631 -116.642464 126 27365ft 361kts
27-Oct-20 09:28 36.627951 -116.551462 113 24747ft 301kts
27-Oct-20 09:29 36.579248 -116.467364 115 21034ft 294kts
27-Oct-20 09:30 36.536855 -116.394998 112 20440ft 247kts
27-Oct-20 09:31 36.496478 -116.326081 112 20400ft 246kts
27-Oct-20 09:32 36.452816 -116.253763 119 20370ft 288kts
27-Oct-20 09:33 36.397606 -116.176159 120 20426ft 307kts
27-Oct-20 09:34 36.338757 -116.093512 121 19261ft 328kts
27-Oct-20 09:35 36.277848 -116.008207 121 17801ft 333kts
27-Oct-20 09:36 36.216257 -115.922118 122 16320ft 331kts
27-Oct-20 09:37 36.174113 -115.830753 105 15991ft 290kts
27-Oct-20 09:38 36.117775 -115.752658 131 14999ft 325kts
27-Oct-20 09:39 36.049835 -115.678662 131 13526ft 322kts
27-Oct-20 09:40 35.984698 -115.605357 131 12144ft 312kts
27-Oct-20 09:41 35.922901 -115.534038 131 11170ft 301kts
27-Oct-20 09:42 35.863557 -115.463222 131 10154ft 293kts
27-Oct-20 09:43 35.806674 -115.393355 131 9330ft 290kts
27-Oct-20 09:44 35.785090 -115.319348 38 8127ft 221kts
27-Oct-20 09:45 35.837285 -115.304942 16 7416ft 195kts
27-Oct-20 09:46 35.886091 -115.278584 24 6130ft 185kts
27-Oct-20 09:47 35.932957 -115.251852 24 5288ft 171kts
27-Oct-20 09:48 35.972957 -115.228956 25 4735ft 148kts
27-Oct-20 09:49 36.002883 -115.211825 27 4084ft 98kts
27-Oct-20 09:50 36.024865 -115.199700 29 3533ft 86kts
27-Oct-20 09:51 36.047083 -115.186804 31 2979ft 87kts
27-Oct-20 09:52 36.068867 -115.174027 30 2425ft 86kts
27-Oct-20 09:53 36.083785 -115.165597 13 2181ft 15kts
27-Oct-20 09:54 36.082854 -115.168469 1 2181ft 9kts
27-Oct-20 09:55 36.086518 -115.166341 24 2181ft 25kts
27-Oct-20 09:56 36.093056 -115.162606 23 2181ft 30kts
27-Oct-20 09:57 36.097876 -115.160829 314 2181ft 13kts
27-Oct-20 09:58 36.099144 -115.159749 115 2181ft 0kts
27-Oct-20 09:59 36.099145 -115.159749 115 2181ft 0kts

Navigation Log

Ident Type
Flight plan parsing failed, navigation log unavailable